sensor_id;sensor_type;location;lat;lon;timestamp;temperature;humidity
16178;DHT22;8195;51.220;9.746;2023-03-13T00:07:41;6.40;97.20
16178;DHT22;8195;51.220;9.746;2023-03-13T00:18:02;6.40;97.20
16178;DHT22;8195;51.220;9.746;2023-03-13T00:28:23;6.50;97.20
16178;DHT22;8195;51.220;9.746;2023-03-13T00:38:45;6.50;97.20
16178;DHT22;8195;51.220;9.746;2023-03-13T00:49:06;6.60;97.20
16178;DHT22;8195;51.220;9.746;2023-03-13T00:59:27;6.70;97.20
16178;DHT22;8195;51.220;9.746;2023-03-13T01:09:48;6.70;97.20
16178;DHT22;8195;51.220;9.746;2023-03-13T01:20:09;6.80;97.20
16178;DHT22;8195;51.220;9.746;2023-03-13T01:30:30;6.90;97.20
16178;DHT22;8195;51.220;9.746;2023-03-13T01:40:51;6.90;97.20
16178;DHT22;8195;51.220;9.746;2023-03-13T01:51:44;6.80;97.20
16178;DHT22;8195;51.220;9.746;2023-03-13T02:02:05;6.90;97.20
16178;DHT22;8195;51.220;9.746;2023-03-13T02:12:33;6.90;97.20
16178;DHT22;8195;51.220;9.746;2023-03-13T02:23:17;6.90;97.20
16178;DHT22;8195;51.220;9.746;2023-03-13T02:33:40;7.00;97.20
16178;DHT22;8195;51.220;9.746;2023-03-13T02:44:02;7.10;97.20
16178;DHT22;8195;51.220;9.746;2023-03-13T02:54:29;7.00;97.20
16178;DHT22;8195;51.220;9.746;2023-03-13T03:04:53;7.10;97.20
16178;DHT22;8195;51.220;9.746;2023-03-13T03:15:14;7.20;97.20
16178;DHT22;8195;51.220;9.746;2023-03-13T03:25:34;7.20;97.20
16178;DHT22;8195;51.220;9.746;2023-03-13T03:36:04;7.20;97.20
16178;DHT22;8195;51.220;9.746;2023-03-13T03:46:25;7.20;97.20
16178;DHT22;8195;51.220;9.746;2023-03-13T03:56:46;7.30;97.20
16178;DHT22;8195;51.220;9.746;2023-03-13T04:07:07;7.20;97.20
16178;DHT22;8195;51.220;9.746;2023-03-13T04:17:28;7.30;97.20
16178;DHT22;8195;51.220;9.746;2023-03-13T04:27:50;7.30;97.20
16178;DHT22;8195;51.220;9.746;2023-03-13T04:38:11;7.30;97.20
16178;DHT22;8195;51.220;9.746;2023-03-13T04:48:35;7.40;97.20
16178;DHT22;8195;51.220;9.746;2023-03-13T04:58:56;7.40;97.20
16178;DHT22;8195;51.220;9.746;2023-03-13T05:09:17;7.60;97.20
16178;DHT22;8195;51.220;9.746;2023-03-13T05:19:37;7.70;97.20
16178;DHT22;8195;51.220;9.746;2023-03-13T05:29:59;7.90;97.20
16178;DHT22;8195;51.220;9.746;2023-03-13T05:40:20;8.00;97.20
16178;DHT22;8195;51.220;9.746;2023-03-13T05:50:41;8.10;97.20
16178;DHT22;8195;51.220;9.746;2023-03-13T06:01:10;8.20;97.20
16178;DHT22;8195;51.220;9.746;2023-03-13T06:11:31;8.30;97.20
16178;DHT22;8195;51.220;9.746;2023-03-13T06:21:52;8.50;97.20
16178;DHT22;8195;51.220;9.746;2023-03-13T06:32:16;8.60;97.20
16178;DHT22;8195;51.220;9.746;2023-03-13T06:42:37;8.60;97.20
16178;DHT22;8195;51.220;9.746;2023-03-13T06:52:58;8.70;97.20
16178;DHT22;8195;51.220;9.746;2023-03-13T07:03:19;8.80;97.20
16178;DHT22;8195;51.220;9.746;2023-03-13T07:13:42;8.90;97.20
16178;DHT22;8195;51.220;9.746;2023-03-13T07:24:04;9.00;97.20
16178;DHT22;8195;51.220;9.746;2023-03-13T07:34:30;9.10;97.20
16178;DHT22;8195;51.220;9.746;2023-03-13T07:44:52;9.20;97.20
16178;DHT22;8195;51.220;9.746;2023-03-13T07:55:13;9.30;97.20
16178;DHT22;8195;51.220;9.746;2023-03-13T08:05:34;9.40;97.20
16178;DHT22;8195;51.220;9.746;2023-03-13T08:26:50;9.60;97.20
16178;DHT22;8195;51.220;9.746;2023-03-13T08:37:14;9.70;97.20
16178;DHT22;8195;51.220;9.746;2023-03-13T08:47:35;9.80;97.20
16178;DHT22;8195;51.220;9.746;2023-03-13T08:57:59;9.80;97.20
16178;DHT22;8195;51.220;9.746;2023-03-13T09:08:26;10.00;97.20
16178;DHT22;8195;51.220;9.746;2023-03-13T09:18:50;10.10;97.20
16178;DHT22;8195;51.220;9.746;2023-03-13T09:29:20;10.20;97.20
16178;DHT22;8195;51.220;9.746;2023-03-13T09:39:44;10.30;97.20
16178;DHT22;8195;51.220;9.746;2023-03-13T09:50:51;11.20;97.20
16178;DHT22;8195;51.220;9.746;2023-03-13T10:01:19;11.50;97.20
16178;DHT22;8195;51.220;9.746;2023-03-13T10:12:19;11.50;97.20
16178;DHT22;8195;51.220;9.746;2023-03-13T10:23:20;11.70;97.20
16178;DHT22;8195;51.220;9.746;2023-03-13T10:33:43;11.50;97.20
16178;DHT22;8195;51.220;9.746;2023-03-13T10:44:11;11.50;97.20
16178;DHT22;8195;51.220;9.746;2023-03-13T10:54:44;11.50;97.20
16178;DHT22;8195;51.220;9.746;2023-03-13T11:15:59;11.70;97.20
16178;DHT22;8195;51.220;9.746;2023-03-13T11:37:40;12.20;97.20
16178;DHT22;8195;51.220;9.746;2023-03-13T11:48:15;12.00;97.20
16178;DHT22;8195;51.220;9.746;2023-03-13T12:20:54;12.10;97.20
16178;DHT22;8195;51.220;9.746;2023-03-13T13:04:03;12.30;97.20
16178;DHT22;8195;51.220;9.746;2023-03-13T13:35:45;12.20;97.20
16178;DHT22;8195;51.220;9.746;2023-03-13T14:07:17;12.10;97.20
16178;DHT22;8195;51.220;9.746;2023-03-13T14:17:47;12.10;97.20
16178;DHT22;8195;51.220;9.746;2023-03-13T14:28:20;12.10;97.20
16178;DHT22;8195;51.220;9.746;2023-03-13T14:38:59;12.00;97.20
16178;DHT22;8195;51.220;9.746;2023-03-13T14:49:29;12.00;97.20
16178;DHT22;8195;51.220;9.746;2023-03-13T14:59:51;12.00;97.20
16178;DHT22;8195;51.220;9.746;2023-03-13T15:10:30;12.00;97.20
16178;DHT22;8195;51.220;9.746;2023-03-13T15:20:54;12.00;97.20
16178;DHT22;8195;51.220;9.746;2023-03-13T15:31:15;12.00;97.20
16178;DHT22;8195;51.220;9.746;2023-03-13T15:41:48;12.10;97.20
16178;DHT22;8195;51.220;9.746;2023-03-13T15:52:27;12.20;97.20
16178;DHT22;8195;51.220;9.746;2023-03-13T16:02:48;12.20;97.20
16178;DHT22;8195;51.220;9.746;2023-03-13T16:13:10;12.10;97.20
16178;DHT22;8195;51.220;9.746;2023-03-13T16:23:33;12.10;97.20
16178;DHT22;8195;51.220;9.746;2023-03-13T16:33:55;12.10;97.20
16178;DHT22;8195;51.220;9.746;2023-03-13T16:44:24;12.10;97.20
16178;DHT22;8195;51.220;9.746;2023-03-13T16:54:46;12.10;97.20
16178;DHT22;8195;51.220;9.746;2023-03-13T17:05:07;12.10;97.20
16178;DHT22;8195;51.220;9.746;2023-03-13T17:15:28;12.10;97.20
16178;DHT22;8195;51.220;9.746;2023-03-13T17:25:49;12.10;97.20
16178;DHT22;8195;51.220;9.746;2023-03-13T17:46:54;11.80;97.20
16178;DHT22;8195;51.220;9.746;2023-03-13T17:57:21;11.70;97.20
16178;DHT22;8195;51.220;9.746;2023-03-13T18:07:42;11.60;97.20
16178;DHT22;8195;51.220;9.746;2023-03-13T18:18:03;11.50;97.20
16178;DHT22;8195;51.220;9.746;2023-03-13T18:28:24;11.50;97.20
16178;DHT22;8195;51.220;9.746;2023-03-13T18:38:52;11.40;97.20
16178;DHT22;8195;51.220;9.746;2023-03-13T18:49:19;11.40;97.20
16178;DHT22;8195;51.220;9.746;2023-03-13T18:59:43;11.40;97.20
16178;DHT22;8195;51.220;9.746;2023-03-13T19:10:20;11.40;97.20
16178;DHT22;8195;51.220;9.746;2023-03-13T19:20:41;11.30;97.20
16178;DHT22;8195;51.220;9.746;2023-03-13T19:31:02;11.20;97.20
16178;DHT22;8195;51.220;9.746;2023-03-13T19:41:29;11.20;97.20
16178;DHT22;8195;51.220;9.746;2023-03-13T19:51:59;11.20;97.20
16178;DHT22;8195;51.220;9.746;2023-03-13T20:02:28;11.30;97.20
16178;DHT22;8195;51.220;9.746;2023-03-13T20:12:55;11.30;97.20
16178;DHT22;8195;51.220;9.746;2023-03-13T20:23:19;11.30;97.20
16178;DHT22;8195;51.220;9.746;2023-03-13T20:33:40;11.30;97.20
16178;DHT22;8195;51.220;9.746;2023-03-13T20:44:04;11.20;97.20
16178;DHT22;8195;51.220;9.746;2023-03-13T20:54:32;11.20;97.20
16178;DHT22;8195;51.220;9.746;2023-03-13T21:04:53;11.10;97.20
16178;DHT22;8195;51.220;9.746;2023-03-13T21:15:17;11.00;97.20
16178;DHT22;8195;51.220;9.746;2023-03-13T21:25:38;10.90;97.20
16178;DHT22;8195;51.220;9.746;2023-03-13T21:35:59;10.80;97.20
16178;DHT22;8195;51.220;9.746;2023-03-13T21:46:20;10.70;97.20
16178;DHT22;8195;51.220;9.746;2023-03-13T21:56:40;10.60;97.20
16178;DHT22;8195;51.220;9.746;2023-03-13T22:07:01;10.50;97.20
16178;DHT22;8195;51.220;9.746;2023-03-13T22:17:23;10.30;97.20
16178;DHT22;8195;51.220;9.746;2023-03-13T22:27:44;10.20;97.20
16178;DHT22;8195;51.220;9.746;2023-03-13T22:38:08;10.10;97.20
16178;DHT22;8195;51.220;9.746;2023-03-13T22:48:30;10.00;97.20
16178;DHT22;8195;51.220;9.746;2023-03-13T22:58:51;9.90;97.20
16178;DHT22;8195;51.220;9.746;2023-03-13T23:09:21;9.80;97.20
16178;DHT22;8195;51.220;9.746;2023-03-13T23:19:42;9.70;97.20
16178;DHT22;8195;51.220;9.746;2023-03-13T23:30:05;9.70;97.20
16178;DHT22;8195;51.220;9.746;2023-03-13T23:40:27;9.60;97.20
16178;DHT22;8195;51.220;9.746;2023-03-13T23:51:08;9.50;97.20
